createdAt,value
2019-03-23T00:01:46.360Z,46.46
2019-03-23T00:04:33.110Z,46.48
2019-03-23T00:07:22.682Z,46.50
2019-03-23T00:09:49.248Z,46.53
2019-03-23T00:12:25.619Z,46.54
2019-03-23T00:15:02.458Z,46.58
2019-03-23T00:17:45.226Z,46.60
2019-03-23T00:23:38.057Z,46.63
2019-03-23T00:26:44.729Z,46.67
2019-03-23T00:29:21.007Z,46.70
2019-03-23T00:33:03.231Z,46.74
2019-03-23T00:43:56.841Z,46.84
2019-03-23T00:46:29.572Z,46.85
2019-03-23T00:49:03.492Z,46.90
2019-03-23T00:51:34.996Z,46.92
2019-03-23T01:09:47.230Z,47.13
2019-03-23T01:12:48.768Z,47.17
2019-03-23T01:15:19.773Z,47.19
2019-03-23T01:18:10.607Z,47.21
2019-03-23T01:20:49.670Z,47.24
2019-03-23T01:23:20.201Z,47.26
2019-03-23T01:25:51.576Z,47.28
2019-03-23T01:28:25.007Z,47.32
2019-03-23T01:37:15.732Z,47.42
2019-03-23T01:39:52.562Z,47.45
2019-03-23T01:43:08.391Z,47.48
2019-03-23T01:45:35.205Z,47.50
2019-03-23T01:48:08.856Z,47.55
2019-03-23T01:50:53.213Z,47.58
2019-03-23T01:53:51.427Z,47.59
2019-03-23T01:56:32.210Z,47.62
2019-03-23T01:59:03.505Z,47.67
2019-03-23T02:01:42.013Z,47.71
2019-03-23T02:04:37.916Z,47.73
2019-03-23T02:06:48.145Z,47.75
2019-03-23T02:09:23.985Z,47.79
2019-03-23T02:12:03.564Z,47.83
2019-03-23T02:17:36.631Z,47.89
2019-03-23T02:20:13.066Z,47.93
2019-03-23T02:22:50.665Z,47.95
2019-03-23T02:25:28.577Z,47.98
2019-03-23T02:28:02.521Z,48.02
2019-03-23T02:36:42.088Z,48.11
2019-03-23T02:39:13.254Z,48.15
2019-03-23T02:41:48.176Z,48.18
2019-03-23T02:44:19.426Z,48.22
2019-03-23T02:46:52.522Z,48.24
2019-03-23T02:49:24.071Z,48.27
2019-03-23T02:51:55.308Z,48.30
2019-03-23T02:54:27.435Z,48.36
2019-03-23T02:56:59.658Z,48.39
2019-03-23T02:59:33.937Z,48.42
2019-03-23T03:02:03.956Z,48.43
2019-03-23T03:04:36.509Z,48.47
2019-03-23T03:07:10.290Z,48.50
2019-03-23T03:09:41.329Z,48.53
2019-03-23T03:12:12.402Z,48.57
2019-03-23T03:14:43.622Z,48.62
2019-03-23T03:17:16.833Z,48.65
2019-03-23T03:19:48.003Z,48.68
2019-03-23T03:22:22.176Z,48.72
2019-03-23T03:24:53.138Z,48.74
2019-03-23T03:27:25.671Z,48.78
2019-03-23T03:29:59.405Z,48.82
2019-03-23T03:32:31.223Z,48.84
2019-03-23T03:35:04.687Z,48.88
2019-03-23T03:37:35.927Z,48.92
2019-03-23T03:40:07.597Z,48.96
2019-03-23T03:42:41.121Z,49.00
2019-03-23T03:45:16.333Z,49.04
2019-03-23T03:47:47.630Z,49.09
2019-03-23T03:50:18.802Z,49.13
2019-03-23T03:52:52.724Z,49.16
2019-03-23T03:55:25.550Z,49.20
2019-03-23T03:57:56.860Z,49.24
2019-03-23T04:00:30.729Z,49.28
2019-03-23T04:03:02.477Z,49.32
2019-03-23T04:05:40.331Z,49.35
2019-03-23T04:08:16.459Z,49.39
2019-03-23T04:10:47.732Z,49.43
2019-03-23T04:13:19.242Z,49.48
2019-03-23T04:15:50.474Z,49.53
2019-03-23T04:18:23.881Z,49.57
2019-03-23T04:20:57.815Z,49.65
2019-03-23T04:23:29.031Z,49.66
2019-03-23T04:26:00.276Z,49.70
2019-03-23T04:28:31.458Z,49.73
2019-03-23T04:31:03.929Z,49.78
2019-03-23T04:33:35.352Z,49.81
2019-03-23T04:36:07.385Z,49.88
2019-03-23T04:38:38.599Z,49.92
2019-03-23T04:41:12.683Z,50.00
2019-03-23T04:43:45.065Z,50.02
2019-03-23T04:46:16.716Z,50.08
2019-03-23T04:48:47.868Z,50.11
2019-03-23T04:51:26.210Z,50.14
2019-03-23T04:53:57.518Z,50.18
2019-03-23T04:56:29.979Z,50.24
2019-03-23T04:59:01.567Z,50.27
2019-03-23T05:01:32.853Z,50.33
2019-03-23T05:04:04.176Z,50.37
2019-03-23T05:06:37.426Z,50.41
2019-03-23T05:09:13.963Z,50.45
2019-03-23T05:11:45.070Z,50.52
2019-03-23T05:14:16.222Z,50.55
2019-03-23T05:16:47.499Z,50.59
2019-03-23T05:19:19.033Z,50.65
2019-03-23T05:21:55.094Z,50.69
2019-03-23T05:24:25.474Z,50.74
2019-03-23T05:26:58.238Z,50.78
2019-03-23T05:29:29.543Z,50.82
2019-03-23T05:32:00.607Z,50.88
2019-03-23T05:34:31.813Z,50.93
2019-03-23T05:37:03.574Z,50.96
2019-03-23T05:39:34.707Z,51.02
2019-03-23T05:42:06.395Z,51.05
2019-03-23T05:44:46.003Z,51.11
2019-03-23T05:47:19.492Z,51.17
2019-03-23T05:49:51.229Z,51.23
2019-03-23T05:52:25.801Z,51.30
2019-03-23T05:54:56.963Z,51.34
2019-03-23T05:57:28.093Z,51.40
2019-03-23T05:59:59.416Z,51.46
2019-03-23T06:02:49.854Z,51.50
2019-03-23T06:05:33.737Z,51.52
2019-03-23T06:08:06.083Z,51.59
2019-03-23T06:10:38.056Z,51.66
2019-03-23T06:13:13.661Z,51.71
2019-03-23T06:15:48.108Z,51.77
2019-03-23T06:18:22.310Z,51.81
2019-03-23T06:20:57.633Z,51.86
2019-03-23T06:23:29.088Z,51.91
2019-03-23T06:26:13.026Z,51.98
2019-03-23T06:28:44.940Z,52.01
2019-03-23T06:31:18.379Z,52.09
2019-03-23T06:34:05.416Z,52.12
2019-03-23T06:36:28.584Z,52.16
2019-03-23T06:39:05.318Z,52.25
2019-03-23T06:41:36.129Z,52.30
2019-03-23T06:44:18.332Z,52.35
2019-03-23T06:46:54.396Z,52.39
2019-03-23T06:49:25.870Z,52.46
2019-03-23T06:52:06.503Z,52.53
2019-03-23T06:54:41.934Z,52.58
2019-03-23T06:57:25.038Z,52.64
2019-03-23T07:00:05.726Z,52.68
2019-03-23T07:02:41.169Z,52.74
2019-03-23T07:05:39.170Z,52.81
2019-03-23T07:08:15.423Z,52.85
2019-03-23T07:11:00.848Z,52.92
2019-03-23T07:13:35.394Z,52.99
2019-03-23T07:19:43.914Z,53.09
2019-03-23T07:25:50.644Z,53.20
2019-03-23T07:28:26.198Z,53.25
2019-03-23T07:30:57.555Z,53.29
2019-03-23T07:33:56.818Z,53.35
2019-03-23T07:36:34.944Z,53.39
2019-03-23T07:39:08.169Z,53.45
2019-03-23T07:45:00.019Z,53.53
2019-03-23T07:47:38.040Z,53.59
2019-03-23T07:51:01.161Z,53.63
2019-03-23T07:53:55.614Z,53.67
2019-03-23T07:56:28.890Z,53.73
2019-03-23T07:59:05.596Z,53.78
2019-03-23T08:01:44.751Z,53.83
2019-03-23T08:04:47.218Z,53.89
2019-03-23T08:07:42.582Z,53.92
2019-03-23T08:10:33.366Z,53.97
2019-03-23T08:13:05.912Z,54.00
2019-03-23T08:15:37.905Z,54.05
2019-03-23T08:18:13.102Z,54.10
2019-03-23T08:20:45.648Z,54.14
2019-03-23T08:23:28.249Z,54.18
2019-03-23T08:29:44.150Z,54.28
2019-03-23T08:32:22.766Z,54.37
2019-03-23T08:39:18.571Z,54.55
2019-03-23T08:48:56.482Z,54.91
2019-03-23T08:52:11.224Z,54.94
2019-03-23T08:54:52.614Z,54.92
2019-03-23T09:01:07.422Z,55.03
2019-03-23T09:04:11.708Z,55.09
2019-03-23T09:06:34.542Z,55.22
2019-03-23T09:09:37.989Z,55.32
2019-03-23T09:12:34.306Z,55.39
2019-03-23T09:14:55.957Z,55.51
2019-03-23T09:17:58.300Z,55.57
2019-03-23T09:20:31.196Z,55.64
2019-03-23T09:23:09.663Z,55.88
2019-03-23T09:25:48.544Z,56.03
2019-03-23T09:28:27.155Z,56.10
2019-03-23T09:30:55.377Z,56.15
2019-03-23T09:34:01.128Z,56.11
2019-03-23T09:36:32.285Z,56.16
2019-03-23T09:39:49.805Z,56.36
2019-03-23T09:42:28.092Z,56.54
2019-03-23T09:45:29.753Z,56.70
2019-03-23T09:48:09.954Z,56.71
2019-03-23T09:51:23.943Z,56.64
2019-03-23T09:54:25.017Z,56.67
2019-03-23T09:57:02.176Z,56.80
2019-03-23T09:59:43.311Z,57.08
2019-03-23T10:02:34.484Z,57.18
2019-03-23T10:05:09.028Z,57.42
2019-03-23T10:07:45.302Z,57.55
2019-03-23T10:10:22.103Z,57.68
2019-03-23T10:12:54.328Z,57.85
2019-03-23T10:15:44.200Z,57.99
2019-03-23T10:21:29.300Z,57.85
2019-03-23T10:24:08.354Z,57.69
2019-03-23T10:28:17.712Z,57.72
2019-03-23T10:29:15.405Z,57.90
2019-03-23T10:31:57.762Z,57.93
2019-03-23T10:34:24.957Z,57.98
2019-03-23T10:36:55.935Z,58.07
2019-03-23T10:39:26.824Z,58.16
2019-03-23T10:42:36.792Z,58.19
2019-03-23T10:44:48.801Z,58.17
2019-03-23T10:47:29.132Z,58.26
2019-03-23T10:50:03.419Z,58.27
2019-03-23T10:52:37.352Z,58.42
2019-03-23T10:55:16.043Z,58.21
2019-03-23T10:57:50.071Z,58.27
2019-03-23T11:00:55.732Z,58.27
2019-03-23T11:03:26.794Z,58.29
2019-03-23T11:06:04.994Z,58.22
2019-03-23T11:08:58.471Z,58.17
2019-03-23T11:11:27.399Z,58.18
2019-03-23T11:14:21.590Z,58.18
2019-03-23T11:16:59.945Z,58.04
2019-03-23T11:19:36.764Z,58.14
2019-03-23T11:22:10.119Z,57.94
2019-03-23T11:24:46.492Z,57.77
2019-03-23T11:27:22.430Z,57.79
2019-03-23T11:30:57.232Z,57.72
2019-03-23T11:33:09.699Z,57.57
2019-03-23T11:35:57.685Z,57.46
2019-03-23T11:38:32.578Z,57.39
2019-03-23T11:41:15.936Z,57.35
2019-03-23T11:44:05.001Z,57.37
2019-03-23T11:47:00.402Z,57.15
2019-03-23T11:49:13.168Z,56.99
2019-03-23T11:52:04.888Z,56.97
2019-03-23T11:54:48.668Z,56.80
2019-03-23T11:57:50.790Z,56.82
2019-03-23T12:00:26.321Z,56.95
2019-03-23T12:03:03.049Z,56.78
2019-03-23T12:06:15.755Z,56.57
2019-03-23T12:15:15.179Z,56.18
2019-03-23T12:18:15.107Z,56.08
2019-03-23T12:21:11.911Z,55.97
2019-03-23T12:23:45.563Z,55.87
2019-03-23T12:26:23.882Z,55.71
2019-03-23T12:28:54.837Z,55.73
2019-03-23T12:41:10.004Z,55.11
2019-03-23T12:43:48.475Z,55.00
2019-03-23T12:52:04.563Z,54.65
2019-03-23T12:54:59.375Z,54.63
2019-03-23T12:57:37.695Z,54.52
2019-03-23T13:00:20.059Z,54.41
2019-03-23T13:03:03.938Z,54.35
2019-03-23T13:05:35.130Z,54.26
2019-03-23T13:08:06.613Z,54.15
2019-03-23T13:10:56.211Z,53.98
2019-03-23T13:13:32.139Z,53.83
2019-03-23T13:16:03.298Z,53.75
2019-03-23T13:18:37.191Z,53.60
2019-03-23T13:21:08.268Z,53.57
2019-03-23T13:23:44.757Z,53.37
2019-03-23T13:26:15.910Z,53.32
2019-03-23T13:28:48.470Z,53.30
2019-03-23T13:31:19.625Z,53.06
2019-03-23T13:33:50.775Z,52.99
2019-03-23T13:36:24.316Z,52.95
2019-03-23T13:39:07.501Z,52.91
2019-03-23T13:41:47.034Z,52.89
2019-03-23T13:44:39.212Z,52.94
2019-03-23T13:51:40.573Z,52.83
2019-03-23T14:00:36.440Z,52.63
2019-03-23T14:13:11.425Z,52.22
2019-03-23T14:18:45.583Z,52.06
2019-03-23T14:21:23.304Z,51.85
2019-03-23T14:24:03.257Z,51.76
2019-03-23T14:26:39.379Z,51.73
2019-03-23T14:29:26.261Z,51.61
2019-03-23T14:31:57.362Z,51.51
2019-03-23T14:34:34.868Z,51.40
2019-03-23T14:37:08.855Z,51.20
2019-03-23T14:40:22.555Z,51.10
2019-03-23T14:42:53.906Z,51.05
2019-03-23T14:46:53.132Z,50.96
2019-03-23T14:49:25.655Z,50.89
2019-03-23T15:02:00.520Z,50.46
2019-03-23T15:04:34.624Z,50.41
2019-03-23T15:07:06.051Z,50.17
2019-03-23T15:09:39.787Z,50.06
2019-03-23T15:12:18.743Z,50.01
2019-03-23T15:14:54.636Z,49.93
2019-03-23T15:17:31.676Z,49.92
2019-03-23T15:20:13.533Z,49.77
2019-03-23T15:23:04.856Z,49.64
2019-03-23T15:39:14.925Z,49.16
2019-03-23T15:42:24.927Z,48.91
2019-03-23T16:03:37.403Z,48.11
2019-03-23T16:06:53.851Z,48.07
2019-03-23T16:09:11.993Z,47.99
2019-03-23T16:11:49.890Z,47.92
2019-03-23T16:41:47.033Z,47.38
2019-03-23T16:56:54.135Z,47.16
2019-03-23T16:59:41.823Z,47.12
2019-03-23T17:25:14.732Z,46.80
2019-03-23T17:28:09.900Z,46.77
2019-03-23T17:30:42.702Z,46.75
2019-03-23T17:33:15.920Z,46.71
2019-03-23T17:35:49.766Z,46.71
2019-03-23T17:38:25.993Z,46.68
2019-03-23T17:41:03.497Z,46.67
2019-03-23T17:43:40.648Z,46.65
2019-03-23T17:46:14.609Z,46.63
2019-03-23T17:48:55.838Z,46.59
2019-03-23T17:51:45.803Z,46.59
2019-03-23T17:54:35.967Z,46.58
2019-03-23T18:12:51.129Z,46.47
2019-03-23T18:15:27.706Z,46.46
2019-03-23T18:18:44.306Z,46.43
2019-03-23T18:21:37.160Z,46.42
2019-03-23T18:27:47.160Z,46.40
2019-03-23T18:30:50.270Z,46.37
2019-03-23T18:33:50.427Z,46.34
2019-03-23T18:36:57.965Z,46.36
2019-03-23T18:39:56.275Z,46.33
2019-03-23T18:45:55.686Z,46.31
2019-03-23T18:48:53.112Z,46.31
2019-03-23T18:51:38.778Z,46.32
2019-03-23T18:54:21.224Z,46.31
2019-03-23T18:57:51.480Z,46.28
2019-03-23T19:00:45.595Z,46.28
2019-03-23T19:03:49.713Z,46.26
2019-03-23T19:05:59.773Z,46.27
2019-03-23T19:08:52.893Z,46.26
2019-03-23T19:11:38.213Z,46.27
2019-03-23T19:14:50.197Z,46.26
2019-03-23T19:20:24.277Z,46.24
2019-03-23T19:23:50.998Z,46.23
2019-03-23T19:26:29.200Z,46.22
2019-03-23T19:32:09.176Z,46.21
2019-03-23T19:34:37.748Z,46.20
2019-03-23T19:37:45.009Z,46.20
2019-03-23T19:40:16.224Z,46.17
2019-03-23T19:42:59.565Z,46.16
2019-03-23T19:45:39.598Z,46.15
2019-03-23T19:48:24.609Z,46.16
2019-03-23T19:50:57.762Z,46.17
2019-03-23T20:05:49.780Z,46.14
2019-03-23T20:08:22.873Z,46.17
2019-03-23T20:11:49.032Z,46.18
2019-03-23T20:13:42.355Z,46.15
2019-03-23T20:16:37.752Z,46.17
2019-03-23T20:19:38.493Z,46.16
2019-03-23T20:22:16.554Z,46.15
2019-03-23T20:24:49.654Z,46.17
2019-03-23T20:27:22.791Z,46.17
2019-03-23T20:30:06.153Z,46.16
2019-03-23T20:36:30.556Z,46.15
2019-03-23T20:39:04.478Z,46.15
2019-03-23T20:42:15.936Z,46.14
2019-03-23T20:44:44.802Z,46.17
2019-03-23T20:47:37.182Z,46.21
2019-03-23T20:50:19.774Z,46.18
2019-03-23T20:53:04.783Z,46.19
2019-03-23T20:56:28.890Z,46.20
2019-03-23T20:59:18.170Z,46.21
2019-03-23T21:03:01.552Z,46.23
2019-03-23T21:05:33.182Z,46.22
2019-03-23T21:08:15.782Z,46.23
2019-03-23T21:11:20.973Z,46.23
2019-03-23T21:13:49.312Z,46.22
2019-03-23T21:16:53.319Z,46.23
2019-03-23T21:19:30.088Z,46.22
2019-03-23T21:22:05.557Z,46.24
2019-03-23T21:24:42.680Z,46.25
2019-03-23T21:27:30.878Z,46.24
2019-03-23T21:30:15.902Z,46.24
2019-03-23T21:33:03.869Z,46.26
2019-03-23T21:36:28.119Z,46.25
2019-03-23T21:40:35.490Z,46.27
2019-03-23T21:41:43.087Z,46.26
2019-03-23T21:44:30.876Z,46.24
2019-03-23T21:47:40.850Z,46.28
2019-03-23T21:50:33.472Z,46.29
2019-03-23T21:53:34.937Z,46.28
2019-03-23T21:55:56.646Z,46.27
2019-03-23T21:58:35.923Z,46.27
2019-03-23T22:01:10.381Z,46.30
2019-03-23T22:04:10.170Z,46.31
2019-03-23T22:06:48.738Z,46.32
2019-03-23T22:22:50.741Z,46.36
2019-03-23T22:25:30.783Z,46.37
2019-03-23T22:28:39.123Z,46.37
2019-03-23T22:31:27.852Z,46.37
2019-03-23T22:34:01.959Z,46.38
2019-03-23T22:36:45.563Z,46.39
2019-03-23T22:39:20.630Z,46.40
2019-03-23T22:42:00.883Z,46.42
2019-03-23T22:44:52.733Z,46.42
2019-03-23T22:47:51.220Z,46.43
2019-03-23T22:50:23.906Z,46.44
2019-03-23T22:53:01.800Z,46.47
2019-03-23T22:55:45.453Z,46.48
2019-03-23T22:58:32.806Z,46.48
2019-03-23T23:01:13.079Z,46.50
2019-03-23T23:03:47.999Z,46.50
2019-03-23T23:06:30.366Z,46.49
2019-03-23T23:09:27.773Z,46.52
2019-03-23T23:11:53.423Z,46.51
2019-03-23T23:14:26.357Z,46.53
2019-03-23T23:16:58.689Z,46.56
2019-03-23T23:19:35.050Z,46.56
2019-03-23T23:22:18.085Z,46.56
2019-03-23T23:24:58.659Z,46.58
2019-03-23T23:27:50.976Z,46.58
2019-03-23T23:30:34.011Z,46.58
2019-03-23T23:33:26.855Z,46.55
2019-03-23T23:36:08.037Z,46.59
2019-03-23T23:38:52.510Z,46.59
2019-03-23T23:41:46.784Z,46.60
2019-03-23T23:44:23.698Z,46.62
2019-03-23T23:46:56.547Z,46.64
2019-03-23T23:49:28.165Z,46.65
2019-03-23T23:52:03.547Z,46.67
2019-03-23T23:54:39.635Z,46.68
2019-03-23T23:57:14.586Z,46.68
2019-03-23T23:59:45.924Z,46.70
